createdAt,value
2022-11-15T00:00:57.412Z,8.70
2022-11-15T00:03:42.691Z,8.80
2022-11-15T00:06:30.015Z,8.90
2022-11-15T00:09:15.379Z,9.10
2022-11-15T00:12:00.802Z,9.20
2022-11-15T00:14:46.506Z,9.30
2022-11-15T00:17:32.111Z,9.40
2022-11-15T00:20:20.656Z,9.60
2022-11-15T00:23:06.459Z,9.70
2022-11-15T00:25:58.912Z,9.70
2022-11-15T00:28:44.788Z,9.80
2022-11-15T00:31:29.991Z,9.90
2022-11-15T00:34:15.296Z,10.00
2022-11-15T00:37:01.003Z,10.00
2022-11-15T00:39:46.541Z,10.00
2022-11-15T00:42:31.920Z,10.10
2022-11-15T00:45:17.532Z,10.00
2022-11-15T00:48:03.033Z,10.10
2022-11-15T00:50:49.144Z,10.10
2022-11-15T00:53:35.403Z,10.10
2022-11-15T00:56:20.647Z,10.10
2022-11-15T00:59:06.189Z,10.20
2022-11-15T01:01:51.855Z,10.10
2022-11-15T01:04:37.307Z,10.20
2022-11-15T01:07:22.851Z,10.20
2022-11-15T01:10:09.469Z,10.20
2022-11-15T01:12:54.846Z,10.20
2022-11-15T01:15:41.684Z,10.30
2022-11-15T01:18:26.861Z,10.20
2022-11-15T01:21:15.469Z,10.30
2022-11-15T01:24:01.155Z,10.30
2022-11-15T01:26:46.506Z,10.30
2022-11-15T01:29:31.985Z,10.30
2022-11-15T01:32:17.683Z,10.40
2022-11-15T01:35:03.171Z,10.50
2022-11-15T01:37:48.769Z,10.60
2022-11-15T01:40:34.205Z,10.60
2022-11-15T01:43:29.652Z,10.70
2022-11-15T01:46:21.437Z,10.70
2022-11-15T01:49:15.375Z,10.80
2022-11-15T01:52:05.369Z,10.90
2022-11-15T01:54:56.392Z,10.90
2022-11-15T01:57:43.775Z,10.90
2022-11-15T02:00:30.745Z,10.90
2022-11-15T02:03:16.500Z,10.90
2022-11-15T02:06:05.395Z,11.00
2022-11-15T02:08:51.880Z,11.00
2022-11-15T02:11:37.416Z,11.00
2022-11-15T02:14:24.129Z,11.00
2022-11-15T02:17:41.973Z,10.90
2022-11-15T02:20:44.595Z,10.80
2022-11-15T02:23:43.139Z,10.70
2022-11-15T02:26:47.183Z,10.50
2022-11-15T02:29:57.083Z,10.30
2022-11-15T02:32:59.656Z,10.30
2022-11-15T02:35:57.061Z,10.40
2022-11-15T02:39:08.442Z,10.50
2022-11-15T02:42:26.067Z,10.60
2022-11-15T02:45:15.141Z,10.70
2022-11-15T02:48:02.475Z,10.70
2022-11-15T02:50:48.995Z,10.80
2022-11-15T02:53:34.629Z,10.80
2022-11-15T02:56:19.824Z,10.80
2022-11-15T02:59:29.567Z,10.90
2022-11-15T03:02:33.586Z,10.90
2022-11-15T03:05:24.586Z,10.90
2022-11-15T03:08:33.864Z,10.90
2022-11-15T03:11:21.773Z,11.00
2022-11-15T03:14:33.846Z,11.00
2022-11-15T03:17:32.886Z,11.10
2022-11-15T03:20:20.050Z,11.20
2022-11-15T03:23:11.011Z,11.20
2022-11-15T03:25:59.014Z,11.20
2022-11-15T03:29:04.049Z,11.30
2022-11-15T03:31:56.730Z,11.30
2022-11-15T03:34:57.168Z,11.30
2022-11-15T03:37:50.316Z,11.40
2022-11-15T03:40:40.467Z,11.40
2022-11-15T03:43:53.434Z,11.30
2022-11-15T03:46:44.112Z,11.40
2022-11-15T03:49:35.081Z,11.40
2022-11-15T03:52:21.863Z,11.40
2022-11-15T03:55:11.915Z,11.40
2022-11-15T03:58:00.922Z,11.30
2022-11-15T04:00:46.404Z,11.30
2022-11-15T04:03:32.106Z,11.20
2022-11-15T04:06:17.816Z,11.20
2022-11-15T04:09:03.914Z,11.20
2022-11-15T04:11:49.121Z,11.20
2022-11-15T04:14:34.712Z,11.20
2022-11-15T04:17:20.211Z,11.10
2022-11-15T04:20:27.206Z,11.10
2022-11-15T04:23:35.819Z,11.10
2022-11-15T04:26:23.349Z,11.10
2022-11-15T04:29:27.566Z,11.10
2022-11-15T04:32:13.089Z,11.10
2022-11-15T04:34:58.556Z,11.00
2022-11-15T04:37:48.922Z,10.80
2022-11-15T04:40:36.093Z,10.70
2022-11-15T04:43:21.445Z,10.60
2022-11-15T04:46:06.942Z,10.50
2022-11-15T04:48:58.293Z,10.40
2022-11-15T04:51:44.445Z,10.40
2022-11-15T04:54:29.785Z,10.30
2022-11-15T04:57:15.951Z,10.30
2022-11-15T05:00:01.463Z,10.40
2022-11-15T05:03:05.446Z,10.50
2022-11-15T05:05:51.048Z,10.40
2022-11-15T05:08:36.504Z,10.50
2022-11-15T05:11:22.438Z,10.60
2022-11-15T05:14:07.734Z,10.60
2022-11-15T05:16:53.285Z,10.60
2022-11-15T05:19:39.499Z,10.60
2022-11-15T05:22:25.078Z,10.60
2022-11-15T05:25:10.302Z,10.60
2022-11-15T05:27:55.671Z,10.70
2022-11-15T05:30:41.189Z,10.60
2022-11-15T05:33:27.302Z,10.60
2022-11-15T05:36:44.146Z,10.70
2022-11-15T05:39:29.388Z,10.70
2022-11-15T05:42:16.421Z,10.70
2022-11-15T05:45:05.142Z,10.70
2022-11-15T05:47:51.304Z,10.70
2022-11-15T05:50:39.405Z,10.70
2022-11-15T05:53:26.883Z,10.80
2022-11-15T05:56:12.763Z,10.90
2022-11-15T05:59:00.058Z,11.00
2022-11-15T06:01:46.664Z,11.00
2022-11-15T06:04:32.338Z,11.00
2022-11-15T06:07:17.986Z,11.00
2022-11-15T06:10:03.643Z,11.10
2022-11-15T06:13:00.545Z,11.10
2022-11-15T06:15:46.118Z,11.20
2022-11-15T06:18:34.602Z,11.20
2022-11-15T06:21:20.052Z,11.30
2022-11-15T06:24:06.324Z,11.30
2022-11-15T06:26:52.035Z,11.30
2022-11-15T06:29:37.428Z,11.40
2022-11-15T06:32:22.968Z,11.40
2022-11-15T06:35:08.599Z,11.40
2022-11-15T06:37:53.871Z,11.40
2022-11-15T06:40:40.410Z,11.50
2022-11-15T06:43:25.813Z,11.50
2022-11-15T06:46:11.632Z,11.50
2022-11-15T06:48:57.062Z,11.50
2022-11-15T06:51:42.504Z,11.50
2022-11-15T06:54:28.149Z,11.50
2022-11-15T06:57:13.671Z,11.50
2022-11-15T06:59:59.282Z,11.50
2022-11-15T07:02:45.180Z,11.60
2022-11-15T07:05:31.113Z,11.60
2022-11-15T07:08:16.478Z,11.70
2022-11-15T07:11:05.701Z,11.70
2022-11-15T07:13:50.886Z,11.70
2022-11-15T07:16:37.658Z,11.60
2022-11-15T07:19:22.740Z,11.50
2022-11-15T07:22:08.338Z,11.50
2022-11-15T07:24:53.847Z,11.40
2022-11-15T07:27:39.194Z,11.40
2022-11-15T07:30:25.633Z,11.30
2022-11-15T07:33:10.956Z,11.30
2022-11-15T07:36:02.581Z,11.30
2022-11-15T07:38:48.155Z,11.30
2022-11-15T07:41:33.773Z,11.40
2022-11-15T07:44:19.220Z,11.40
2022-11-15T07:47:04.994Z,11.50
2022-11-15T07:49:50.438Z,11.50
2022-11-15T07:52:36.178Z,11.70
2022-11-15T07:55:21.830Z,11.80
2022-11-15T07:58:11.588Z,12.00
2022-11-15T08:00:57.194Z,12.20
2022-11-15T08:03:42.482Z,12.30
2022-11-15T08:06:27.954Z,12.30
2022-11-15T08:09:13.665Z,12.30
2022-11-15T08:11:59.157Z,12.30
2022-11-15T08:14:44.748Z,12.30
2022-11-15T08:17:33.766Z,12.20
2022-11-15T08:20:20.469Z,12.20
2022-11-15T08:23:07.137Z,12.10
2022-11-15T08:25:52.354Z,12.00
2022-11-15T08:28:37.752Z,12.00
2022-11-15T08:31:23.464Z,12.00
2022-11-15T08:34:09.302Z,12.00
2022-11-15T08:36:54.509Z,12.00
2022-11-15T08:39:40.197Z,12.00
2022-11-15T08:42:25.376Z,12.10
2022-11-15T08:45:11.827Z,12.10
2022-11-15T08:47:58.004Z,12.20
2022-11-15T08:50:44.858Z,12.30
2022-11-15T08:53:30.768Z,12.40
2022-11-15T08:56:16.899Z,12.50
2022-11-15T08:59:02.416Z,12.60
2022-11-15T09:01:48.099Z,12.70
2022-11-15T09:04:33.866Z,12.70
2022-11-15T09:07:19.387Z,12.80
2022-11-15T09:10:05.213Z,12.90
2022-11-15T09:12:50.371Z,12.90
2022-11-15T09:15:35.968Z,12.90
2022-11-15T09:18:23.428Z,12.90
2022-11-15T09:21:09.288Z,12.90
2022-11-15T09:23:54.948Z,12.90
2022-11-15T09:26:40.888Z,12.90
2022-11-15T09:29:26.102Z,13.00
2022-11-15T09:32:11.527Z,13.20
2022-11-15T09:34:57.193Z,13.50
2022-11-15T09:37:42.546Z,13.80
2022-11-15T09:40:28.680Z,14.00
2022-11-15T09:43:37.237Z,14.30
2022-11-15T09:46:32.038Z,14.50
2022-11-15T09:49:32.235Z,14.60
2022-11-15T09:52:26.110Z,14.60
2022-11-15T09:54:55.595Z,14.80
2022-11-15T09:57:33.513Z,14.80
2022-11-15T10:00:45.459Z,14.90
2022-11-15T10:03:36.338Z,14.90
2022-11-15T10:06:06.173Z,15.00
2022-11-15T10:08:50.068Z,15.10
2022-11-15T10:11:40.339Z,15.10
2022-11-15T10:14:18.131Z,15.10
2022-11-15T10:17:01.156Z,15.00
2022-11-15T10:19:39.694Z,14.90
2022-11-15T10:22:33.419Z,14.90
2022-11-15T10:25:14.272Z,14.90
2022-11-15T10:27:42.840Z,15.00
2022-11-15T10:30:17.038Z,15.00
2022-11-15T10:32:46.357Z,15.10
2022-11-15T10:35:30.894Z,15.10
2022-11-15T10:38:12.053Z,15.10
2022-11-15T10:40:41.093Z,15.00
2022-11-15T10:43:19.811Z,15.10
2022-11-15T10:45:48.193Z,15.10
2022-11-15T10:48:14.998Z,15.00
2022-11-15T10:50:44.566Z,15.10
2022-11-15T10:53:38.769Z,15.10
2022-11-15T10:56:09.869Z,15.10
2022-11-15T10:58:45.731Z,15.20
2022-11-15T11:01:19.315Z,15.20
2022-11-15T11:04:10.561Z,15.20
2022-11-15T11:06:55.930Z,15.20
2022-11-15T11:09:35.134Z,15.30
2022-11-15T11:12:03.610Z,15.60
2022-11-15T11:14:35.448Z,15.80
2022-11-15T11:17:10.306Z,16.10
2022-11-15T11:20:00.438Z,16.30
2022-11-15T11:22:57.790Z,16.30
2022-11-15T11:25:39.749Z,16.20
2022-11-15T11:28:32.531Z,16.30
2022-11-15T11:31:49.056Z,16.40
2022-11-15T11:34:22.035Z,16.50
2022-11-15T11:37:00.073Z,16.60
2022-11-15T11:40:02.183Z,16.40
2022-11-15T11:42:48.852Z,16.40
2022-11-15T11:45:47.092Z,16.20
2022-11-15T11:48:24.708Z,16.30
2022-11-15T11:50:51.799Z,16.50
2022-11-15T11:54:02.023Z,16.70
2022-11-15T11:56:33.512Z,16.90
2022-11-15T11:59:20.358Z,16.90
2022-11-15T12:01:47.412Z,16.80
2022-11-15T12:04:22.057Z,16.50
2022-11-15T12:06:57.801Z,16.40
2022-11-15T12:09:50.838Z,16.30
2022-11-15T12:12:45.512Z,16.60
2022-11-15T12:15:26.857Z,16.70
2022-11-15T12:17:56.191Z,16.90
2022-11-15T12:20:34.006Z,16.80
2022-11-15T12:23:21.530Z,16.80
2022-11-15T12:26:03.177Z,17.00
2022-11-15T12:28:48.579Z,17.20
2022-11-15T12:31:39.479Z,17.20
2022-11-15T12:34:32.453Z,17.00
2022-11-15T12:36:59.674Z,16.70
2022-11-15T12:40:05.472Z,16.00
2022-11-15T12:42:44.858Z,15.80
2022-11-15T12:45:38.359Z,16.00
2022-11-15T12:48:17.868Z,16.30
2022-11-15T12:50:56.935Z,16.60
2022-11-15T12:53:24.221Z,16.60
2022-11-15T12:56:09.564Z,17.00
2022-11-15T12:58:45.188Z,17.20
2022-11-15T13:01:35.090Z,16.90
2022-11-15T13:04:20.652Z,16.20
2022-11-15T13:06:49.138Z,15.70
2022-11-15T13:09:36.492Z,15.60
2022-11-15T13:12:35.526Z,15.30
2022-11-15T13:15:25.975Z,15.20
2022-11-15T13:17:58.342Z,15.10
2022-11-15T13:20:34.893Z,15.00
2022-11-15T13:23:22.783Z,15.10
2022-11-15T13:26:17.991Z,15.50
2022-11-15T13:28:56.096Z,15.60
2022-11-15T13:31:43.322Z,15.30
2022-11-15T13:34:50.022Z,14.90
2022-11-15T13:37:31.232Z,14.60
2022-11-15T13:40:17.473Z,14.40
2022-11-15T13:42:45.967Z,14.40
2022-11-15T13:45:21.466Z,14.50
2022-11-15T13:48:00.296Z,14.50
2022-11-15T13:50:34.844Z,14.50
2022-11-15T13:53:05.732Z,14.60
2022-11-15T13:55:34.070Z,14.60
2022-11-15T13:58:07.142Z,14.50
2022-11-15T14:00:43.656Z,14.60
2022-11-15T14:03:22.854Z,14.50
2022-11-15T14:06:08.856Z,14.50
2022-11-15T14:08:37.206Z,14.50
2022-11-15T14:11:19.105Z,14.50
2022-11-15T14:14:13.719Z,14.50
2022-11-15T14:16:44.242Z,14.60
2022-11-15T14:19:33.135Z,14.90
2022-11-15T14:22:10.056Z,15.10
2022-11-15T14:24:38.355Z,15.30
2022-11-15T14:27:20.052Z,15.50
2022-11-15T14:29:48.320Z,15.90
2022-11-15T14:32:22.165Z,16.10
2022-11-15T14:34:54.881Z,16.10
2022-11-15T14:37:23.869Z,15.90
2022-11-15T14:39:52.279Z,15.90
2022-11-15T14:42:20.580Z,15.90
2022-11-15T14:44:48.052Z,15.80
2022-11-15T14:47:15.702Z,15.70
2022-11-15T14:49:43.220Z,15.50
2022-11-15T14:52:30.442Z,15.30
2022-11-15T14:55:03.373Z,14.90
2022-11-15T14:57:33.395Z,14.70
2022-11-15T15:00:03.241Z,14.50
2022-11-15T15:02:44.068Z,14.20
2022-11-15T15:05:24.411Z,14.00
2022-11-15T15:07:55.388Z,13.80
2022-11-15T15:10:40.607Z,13.70
2022-11-15T15:13:21.134Z,13.60
2022-11-15T15:15:49.826Z,13.50
2022-11-15T15:18:17.443Z,13.40
2022-11-15T15:20:55.713Z,13.40
2022-11-15T15:23:28.265Z,13.30
2022-11-15T15:25:55.972Z,13.30
2022-11-15T15:28:33.146Z,13.20
2022-11-15T15:31:21.408Z,13.10
2022-11-15T15:33:48.858Z,13.00
2022-11-15T15:36:21.813Z,12.90
2022-11-15T15:38:51.673Z,12.90
2022-11-15T15:41:25.470Z,12.90
2022-11-15T15:43:57.452Z,12.90
2022-11-15T15:46:30.241Z,12.90
2022-11-15T15:49:00.947Z,13.00
2022-11-15T15:51:31.244Z,13.00
2022-11-15T15:53:59.596Z,13.00
2022-11-15T15:56:27.413Z,13.00
2022-11-15T15:58:56.936Z,13.00
2022-11-15T16:01:29.007Z,13.00
2022-11-15T16:03:57.029Z,13.10
2022-11-15T16:06:40.515Z,13.10
2022-11-15T16:09:15.696Z,13.00
2022-11-15T16:11:48.616Z,13.00
2022-11-15T16:14:19.750Z,13.00
2022-11-15T16:16:47.288Z,13.00
2022-11-15T16:19:15.541Z,13.00
2022-11-15T16:21:43.084Z,13.10
2022-11-15T16:24:12.870Z,13.00
2022-11-15T16:26:41.013Z,13.10
2022-11-15T16:29:11.048Z,13.00
2022-11-15T16:31:38.308Z,13.10
2022-11-15T16:34:05.904Z,13.10
2022-11-15T16:36:44.072Z,13.00
2022-11-15T16:39:20.773Z,13.00
2022-11-15T16:41:48.006Z,13.10
2022-11-15T16:44:18.909Z,13.10
2022-11-15T16:46:52.465Z,13.20
2022-11-15T16:49:23.021Z,13.20
2022-11-15T16:51:52.861Z,13.20
2022-11-15T16:54:21.245Z,13.10
2022-11-15T16:56:51.947Z,13.20
2022-11-15T16:59:24.948Z,13.10
2022-11-15T17:01:55.722Z,13.10
2022-11-15T17:04:29.963Z,13.10
2022-11-15T17:06:57.549Z,13.00
2022-11-15T17:09:25.259Z,13.10
2022-11-15T17:11:53.272Z,13.10
2022-11-15T17:14:22.745Z,13.00
2022-11-15T17:16:50.136Z,13.00
2022-11-15T17:19:23.450Z,12.90
2022-11-15T17:21:54.557Z,12.90
2022-11-15T17:24:23.039Z,12.80
2022-11-15T17:26:52.990Z,12.80
2022-11-15T17:29:30.595Z,12.80
2022-11-15T17:32:01.032Z,12.70
2022-11-15T17:34:28.087Z,12.70
2022-11-15T17:36:54.886Z,12.80
2022-11-15T17:39:23.744Z,12.80
2022-11-15T17:41:51.661Z,12.70
2022-11-15T17:44:18.527Z,12.70
2022-11-15T17:46:45.423Z,12.60
2022-11-15T17:49:12.310Z,12.60
2022-11-15T17:51:39.252Z,12.60
2022-11-15T17:54:06.343Z,12.60
2022-11-15T17:56:33.322Z,12.60
2022-11-15T17:59:00.752Z,12.60
2022-11-15T18:01:33.258Z,12.60
2022-11-15T18:04:02.188Z,12.50
2022-11-15T18:06:31.479Z,12.40
2022-11-15T18:08:58.896Z,12.40
2022-11-15T18:11:41.075Z,12.20
2022-11-15T18:14:12.557Z,12.10
2022-11-15T18:16:40.395Z,12.00
2022-11-15T18:19:13.624Z,12.00
2022-11-15T18:21:58.930Z,11.90
2022-11-15T18:24:35.375Z,11.90
2022-11-15T18:27:04.382Z,11.90
2022-11-15T18:29:32.584Z,11.90
2022-11-15T18:31:59.499Z,11.80
2022-11-15T18:34:32.258Z,11.90
2022-11-15T18:37:03.393Z,12.00
2022-11-15T18:39:30.605Z,12.00
2022-11-15T18:41:58.047Z,12.20
2022-11-15T18:44:24.951Z,12.20
2022-11-15T18:46:51.958Z,12.20
2022-11-15T18:49:20.295Z,12.30
2022-11-15T18:51:47.878Z,12.30
2022-11-15T18:54:16.178Z,12.40
2022-11-15T18:56:47.206Z,12.30
2022-11-15T18:59:15.416Z,12.30
2022-11-15T19:01:48.637Z,12.30
2022-11-15T19:04:20.595Z,12.40
2022-11-15T19:06:49.761Z,12.40
2022-11-15T19:09:19.255Z,12.40
2022-11-15T19:11:48.047Z,12.60
2022-11-15T19:14:16.511Z,12.50
2022-11-15T19:16:45.534Z,12.60
2022-11-15T19:19:15.278Z,12.50
2022-11-15T19:21:42.606Z,12.60
2022-11-15T19:24:10.616Z,12.60
2022-11-15T19:26:38.011Z,12.60
2022-11-15T19:29:06.513Z,12.50
2022-11-15T19:31:33.755Z,12.50
2022-11-15T19:34:04.343Z,12.50
2022-11-15T19:36:35.934Z,12.70
2022-11-15T19:39:08.594Z,12.70
2022-11-15T19:41:38.722Z,12.70
2022-11-15T19:44:07.337Z,12.70
2022-11-15T19:46:35.881Z,12.70
2022-11-15T19:49:03.547Z,12.70
2022-11-15T19:51:31.155Z,12.60
2022-11-15T19:54:03.723Z,12.70
2022-11-15T19:56:30.732Z,12.70
2022-11-15T19:58:57.982Z,12.70
2022-11-15T20:01:27.641Z,12.70
2022-11-15T20:03:57.236Z,12.80
2022-11-15T20:06:26.884Z,12.80
2022-11-15T20:08:54.287Z,12.80
2022-11-15T20:11:21.427Z,12.80
2022-11-15T20:13:48.567Z,12.80
2022-11-15T20:16:24.418Z,12.80
2022-11-15T20:18:53.126Z,12.80
2022-11-15T20:21:21.523Z,12.80
2022-11-15T20:23:50.815Z,12.90
2022-11-15T20:26:19.112Z,12.90
2022-11-15T20:28:46.226Z,12.90
2022-11-15T20:31:13.163Z,13.00
2022-11-15T20:33:40.564Z,12.90
2022-11-15T20:36:13.867Z,13.00
2022-11-15T20:38:40.978Z,13.00
2022-11-15T20:41:08.162Z,13.00
2022-11-15T20:43:35.018Z,13.00
2022-11-15T20:46:01.975Z,13.10
2022-11-15T20:48:29.066Z,13.10
2022-11-15T20:51:14.311Z,13.20
2022-11-15T20:53:46.396Z,13.20
2022-11-15T20:56:21.712Z,13.30
2022-11-15T20:58:52.273Z,13.20
2022-11-15T21:01:23.913Z,13.20
2022-11-15T21:03:55.483Z,13.10
2022-11-15T21:06:24.000Z,13.10
2022-11-15T21:09:10.778Z,13.00
2022-11-15T21:11:56.803Z,13.10
2022-11-15T21:14:23.815Z,13.10
2022-11-15T21:16:50.994Z,13.10
2022-11-15T21:19:19.103Z,13.00
2022-11-15T21:21:48.509Z,13.00
2022-11-15T21:24:15.711Z,13.00
2022-11-15T21:26:42.707Z,13.00
2022-11-15T21:29:09.667Z,12.90
2022-11-15T21:31:37.451Z,12.90
2022-11-15T21:34:04.481Z,13.00
2022-11-15T21:36:31.441Z,13.00
2022-11-15T21:38:58.586Z,12.90
2022-11-15T21:41:25.469Z,12.90
2022-11-15T21:43:52.357Z,12.90
2022-11-15T21:46:19.193Z,12.90
2022-11-15T21:48:46.152Z,12.90
2022-11-15T21:51:13.304Z,12.90
2022-11-15T21:53:40.883Z,12.90
2022-11-15T21:56:08.866Z,12.90
2022-11-15T21:58:36.129Z,12.90
2022-11-15T22:01:22.105Z,12.80
2022-11-15T22:03:49.026Z,12.80
2022-11-15T22:06:18.237Z,12.90
2022-11-15T22:08:46.147Z,12.80
2022-11-15T22:11:14.421Z,12.80
2022-11-15T22:13:41.542Z,12.80
2022-11-15T22:16:09.705Z,12.90
2022-11-15T22:18:36.952Z,12.90
2022-11-15T22:21:06.998Z,12.90
2022-11-15T22:23:34.462Z,12.90
2022-11-15T22:26:01.838Z,12.90
2022-11-15T22:28:29.564Z,13.00
2022-11-15T22:30:57.062Z,13.00
2022-11-15T22:33:28.646Z,13.00
2022-11-15T22:35:57.096Z,13.00
2022-11-15T22:38:25.247Z,13.10
2022-11-15T22:40:52.467Z,13.10
2022-11-15T22:43:20.931Z,13.10
2022-11-15T22:45:58.918Z,13.10
2022-11-15T22:48:29.206Z,13.10
2022-11-15T22:50:57.032Z,13.00
2022-11-15T22:53:25.038Z,13.00
2022-11-15T22:55:54.326Z,13.00
2022-11-15T22:58:22.895Z,13.00
2022-11-15T23:00:54.994Z,12.90
2022-11-15T23:03:23.154Z,13.00
2022-11-15T23:05:50.545Z,13.00
2022-11-15T23:08:18.059Z,12.90
2022-11-15T23:11:03.895Z,13.00
2022-11-15T23:13:32.935Z,13.00
2022-11-15T23:16:23.995Z,12.90
2022-11-15T23:19:12.532Z,12.90
2022-11-15T23:22:03.888Z,13.00
2022-11-15T23:24:32.301Z,13.00
2022-11-15T23:27:01.501Z,13.00
2022-11-15T23:29:29.555Z,12.90
2022-11-15T23:32:16.256Z,13.00
2022-11-15T23:34:45.551Z,13.10
2022-11-15T23:37:14.844Z,13.10
2022-11-15T23:39:41.719Z,13.00
2022-11-15T23:42:19.817Z,13.00
2022-11-15T23:44:49.938Z,12.90
2022-11-15T23:47:18.768Z,12.90
2022-11-15T23:49:45.817Z,12.90
2022-11-15T23:52:12.731Z,12.90
2022-11-15T23:54:39.586Z,12.90
2022-11-15T23:57:11.722Z,13.00
2022-11-15T23:59:40.143Z,12.90
